createdAt,value
2022-09-12T00:47:47.393Z,13.45
2022-09-12T00:50:16.126Z,16.80
2022-09-12T00:52:45.907Z,17.60
2022-09-12T00:55:19.756Z,13.38
2022-09-12T00:57:57.712Z,15.63
2022-09-12T01:00:27.017Z,16.65
2022-09-12T01:03:01.041Z,15.73
2022-09-12T01:05:29.701Z,20.75
2022-09-12T01:07:57.690Z,15.85
2022-09-12T01:10:25.175Z,17.13
2022-09-12T01:12:52.045Z,24.40
2022-09-12T01:15:18.920Z,16.23
2022-09-12T01:18:10.767Z,15.93
2022-09-12T01:20:47.256Z,16.58
2022-09-12T01:23:26.353Z,17.13
2022-09-12T01:26:04.040Z,17.50
2022-09-12T01:28:37.053Z,16.52
2022-09-12T01:31:39.233Z,21.17
2022-09-12T01:34:28.125Z,16.35
2022-09-12T01:37:15.118Z,20.52
2022-09-12T01:39:56.424Z,17.45
2022-09-12T01:42:49.854Z,16.90
2022-09-12T01:45:32.441Z,18.08
2022-09-12T01:48:22.568Z,18.60
2022-09-12T01:51:11.182Z,20.00
2022-09-12T01:53:42.612Z,23.17
2022-09-12T01:56:26.484Z,19.70
2022-09-12T01:59:03.910Z,20.08
2022-09-12T02:01:39.658Z,17.98
2022-09-12T02:04:12.855Z,16.63
2022-09-12T02:07:01.700Z,20.33
2022-09-12T02:09:38.051Z,24.38
2022-09-12T02:12:08.758Z,21.08
2022-09-12T02:14:40.816Z,20.95
2022-09-12T02:17:21.051Z,21.52
2022-09-12T02:19:54.336Z,21.85
2022-09-12T02:22:25.152Z,20.60
2022-09-12T02:24:57.494Z,20.50
2022-09-12T02:27:26.723Z,19.10
2022-09-12T02:29:54.059Z,20.92
2022-09-12T02:32:38.224Z,19.58
2022-09-12T02:35:18.898Z,23.20
2022-09-12T02:37:59.752Z,21.08
2022-09-12T02:40:26.809Z,20.65
2022-09-12T02:42:53.711Z,28.40
2022-09-12T02:45:22.816Z,23.77
2022-09-12T02:47:57.530Z,21.65
2022-09-12T02:50:24.566Z,23.50
2022-09-12T02:52:54.712Z,22.42
2022-09-12T02:55:24.684Z,24.67
2022-09-12T02:57:51.519Z,23.25
2022-09-12T03:00:18.473Z,22.00
2022-09-12T03:03:06.902Z,23.15
2022-09-12T03:05:59.450Z,20.15
2022-09-12T03:08:45.313Z,27.55
2022-09-12T03:11:26.635Z,24.23
2022-09-12T03:14:22.662Z,23.52
2022-09-12T03:17:12.235Z,23.65
2022-09-12T03:20:09.574Z,24.60
2022-09-12T03:22:56.585Z,26.58
2022-09-12T03:25:36.550Z,22.77
2022-09-12T03:28:13.169Z,23.60
2022-09-12T03:30:45.867Z,26.98
2022-09-12T03:33:15.329Z,23.20
2022-09-12T03:35:42.454Z,27.65
2022-09-12T03:38:10.116Z,30.45
2022-09-12T03:40:38.411Z,29.75
2022-09-12T03:43:06.914Z,29.42
2022-09-12T03:45:34.725Z,27.48
2022-09-12T03:48:02.038Z,28.75
2022-09-12T03:50:29.062Z,28.00
2022-09-12T03:52:56.287Z,28.10
2022-09-12T03:55:23.338Z,34.55
2022-09-12T03:57:54.015Z,31.88
2022-09-12T04:00:21.219Z,29.48
2022-09-12T04:02:48.271Z,44.58
2022-09-12T04:05:15.418Z,31.98
2022-09-12T04:07:42.281Z,28.67
2022-09-12T04:10:09.824Z,32.33
2022-09-12T04:12:36.893Z,30.77
2022-09-12T04:15:03.940Z,33.88
2022-09-12T04:17:30.917Z,28.60
2022-09-12T04:19:57.830Z,30.50
2022-09-12T04:22:24.782Z,32.20
2022-09-12T04:24:51.821Z,35.70
2022-09-12T04:27:18.767Z,32.08
2022-09-12T04:29:45.611Z,36.63
2022-09-12T04:32:12.958Z,37.22
2022-09-12T04:34:39.808Z,35.22
2022-09-12T04:37:06.685Z,34.50
2022-09-12T04:39:33.509Z,36.72
2022-09-12T04:42:00.364Z,38.70
2022-09-12T04:44:27.272Z,35.47
2022-09-12T04:46:54.293Z,36.28
2022-09-12T04:49:21.148Z,36.17
2022-09-12T04:51:48.116Z,35.63
2022-09-12T04:54:18.544Z,30.40
2022-09-12T04:56:48.821Z,29.05
2022-09-12T04:59:17.351Z,32.05
2022-09-12T05:01:44.610Z,31.30
2022-09-12T05:04:15.234Z,33.92
2022-09-12T05:06:42.919Z,42.20
2022-09-12T05:09:12.718Z,33.88
2022-09-12T05:12:03.349Z,34.13
2022-09-12T05:14:28.644Z,30.67
2022-09-12T05:16:59.787Z,36.90
2022-09-12T05:19:27.441Z,36.35
2022-09-12T05:21:54.392Z,34.08
2022-09-12T05:24:21.253Z,35.75
2022-09-12T05:26:48.424Z,30.77
2022-09-12T05:29:15.520Z,33.03
2022-09-12T05:35:41.162Z,32.40
2022-09-12T05:38:08.519Z,31.38
2022-09-12T05:40:35.803Z,33.72
2022-09-12T05:43:02.720Z,28.75
2022-09-12T05:45:30.159Z,32.03
2022-09-12T05:47:57.044Z,35.85
2022-09-12T05:50:23.972Z,31.33
2022-09-12T05:52:50.920Z,31.55
2022-09-12T05:55:17.875Z,29.77
2022-09-12T05:57:46.256Z,29.10
2022-09-12T06:00:15.125Z,34.20
2022-09-12T06:02:42.153Z,33.10
2022-09-12T06:05:09.339Z,33.83
2022-09-12T06:07:36.316Z,32.85
2022-09-12T06:10:05.379Z,30.30
2022-09-12T06:12:33.048Z,29.83
2022-09-12T06:15:00.121Z,30.95
2022-09-12T06:17:27.450Z,39.25
2022-09-12T06:19:55.828Z,38.13
2022-09-12T06:22:22.877Z,37.00
2022-09-12T06:24:51.338Z,34.20
2022-09-12T06:27:19.756Z,34.78
2022-09-12T06:29:46.670Z,36.78
2022-09-12T06:32:14.122Z,36.90
2022-09-12T06:34:41.087Z,34.95
2022-09-12T06:37:08.013Z,36.92
2022-09-12T06:39:36.603Z,37.40
2022-09-12T06:42:04.219Z,40.90
2022-09-12T06:44:31.841Z,44.83
2022-09-12T06:46:59.403Z,42.13
2022-09-12T06:49:26.434Z,45.38
2022-09-12T06:51:56.237Z,44.10
2022-09-12T06:54:23.627Z,43.58
2022-09-12T06:56:50.693Z,44.08
2022-09-12T06:59:17.733Z,38.08
2022-09-12T07:01:44.754Z,46.15
2022-09-12T07:04:11.793Z,41.42
2022-09-12T07:06:41.498Z,48.20
2022-09-12T07:09:13.057Z,45.60
2022-09-12T07:11:41.606Z,46.88
2022-09-12T07:14:11.274Z,49.90
2022-09-12T07:16:38.679Z,47.05
2022-09-12T07:19:08.138Z,55.00
2022-09-12T07:21:42.179Z,50.55
2022-09-12T07:24:10.450Z,49.38
2022-09-12T07:26:39.662Z,50.33
2022-09-12T07:29:35.255Z,48.97
2022-09-12T07:31:54.134Z,58.03
2022-09-12T07:34:21.309Z,50.72
2022-09-12T07:36:48.198Z,50.10
2022-09-12T07:39:15.168Z,51.25
2022-09-12T07:41:42.064Z,57.92
2022-09-12T07:44:09.096Z,56.30
2022-09-12T07:46:36.036Z,66.55
2022-09-12T07:49:03.476Z,57.38
2022-09-12T07:51:31.816Z,52.50
2022-09-12T07:53:58.822Z,51.08
2022-09-12T07:56:30.224Z,57.97
2022-09-12T07:58:59.123Z,56.10
2022-09-12T08:01:26.539Z,53.78
2022-09-12T08:03:56.253Z,51.90
2022-09-12T08:06:26.980Z,56.88
2022-09-12T08:08:57.330Z,52.40
2022-09-12T08:11:25.357Z,48.58
2022-09-12T08:13:55.648Z,55.78
2022-09-12T08:16:25.677Z,43.95
2022-09-12T08:18:52.699Z,59.65
2022-09-12T08:21:21.035Z,59.13
2022-09-12T08:23:52.682Z,54.08
2022-09-12T08:26:19.927Z,49.83
2022-09-12T08:28:46.890Z,53.55
2022-09-12T08:31:16.884Z,61.55
2022-09-12T08:33:44.399Z,45.05
2022-09-12T08:36:13.100Z,55.20
2022-09-12T08:38:43.615Z,42.80
2022-09-12T08:41:30.526Z,42.50
2022-09-12T08:44:15.608Z,42.35
2022-09-12T08:47:03.167Z,40.28
2022-09-12T08:49:33.962Z,37.28
2022-09-12T08:52:07.839Z,46.85
2022-09-12T08:54:35.133Z,40.50
2022-09-12T08:57:04.729Z,35.13
2022-09-12T08:59:46.733Z,38.28
2022-09-12T09:02:28.832Z,35.40
2022-09-12T09:05:04.883Z,41.75
2022-09-12T09:07:54.326Z,37.42
2022-09-12T09:10:40.230Z,46.70
2022-09-12T09:13:46.984Z,38.88
2022-09-12T09:16:22.947Z,43.47
2022-09-12T09:18:52.081Z,37.97
2022-09-12T09:21:39.917Z,38.22
2022-09-12T09:24:12.435Z,51.78
2022-09-12T09:26:56.078Z,37.47
2022-09-12T09:29:42.091Z,34.28
2022-09-12T09:32:19.583Z,38.97
2022-09-12T09:34:46.496Z,39.35
2022-09-12T09:37:19.103Z,39.47
2022-09-12T09:40:19.524Z,40.17
2022-09-12T09:43:04.957Z,39.85
2022-09-12T09:45:32.172Z,45.80
2022-09-12T09:48:27.690Z,34.00
2022-09-12T09:50:54.733Z,37.67
2022-09-12T09:53:37.581Z,37.42
2022-09-12T09:56:24.704Z,34.83
2022-09-12T09:58:54.872Z,34.53
2022-09-12T10:01:22.444Z,30.45
2022-09-12T10:03:55.116Z,31.55
2022-09-12T10:06:22.330Z,31.30
2022-09-12T10:08:50.695Z,34.55
2022-09-12T10:11:28.111Z,34.35
2022-09-12T10:13:57.619Z,36.78
2022-09-12T10:16:48.794Z,39.97
2022-09-12T10:19:49.853Z,31.65
2022-09-12T10:22:29.312Z,35.33
2022-09-12T10:25:01.777Z,35.42
2022-09-12T10:27:32.105Z,35.55
2022-09-12T10:30:06.948Z,33.28
2022-09-12T10:32:39.431Z,34.60
2022-09-12T10:35:20.101Z,26.88
2022-09-12T10:38:06.166Z,27.73
2022-09-12T10:40:40.403Z,28.98
2022-09-12T10:43:38.436Z,26.92
2022-09-12T10:46:17.329Z,29.05
2022-09-12T10:48:47.259Z,25.23
2022-09-12T10:51:29.930Z,26.00
2022-09-12T10:54:03.696Z,25.02
2022-09-12T10:56:32.994Z,18.55
2022-09-12T10:59:21.174Z,21.00
2022-09-12T11:02:05.091Z,22.60
2022-09-12T11:04:38.868Z,20.58
2022-09-12T11:07:24.702Z,23.73
2022-09-12T11:10:13.572Z,28.15
2022-09-12T11:12:58.318Z,25.75
2022-09-12T11:15:43.137Z,24.73
2022-09-12T11:18:37.741Z,27.85
2022-09-12T11:21:13.478Z,22.77
2022-09-12T11:23:40.635Z,21.25
2022-09-12T11:26:16.487Z,20.73
2022-09-12T11:29:04.398Z,21.35
2022-09-12T11:31:46.587Z,21.02
2022-09-12T11:34:19.830Z,21.30
2022-09-12T11:37:10.457Z,19.85
2022-09-12T11:39:43.191Z,20.10
2022-09-12T11:42:18.026Z,15.52
2022-09-12T11:44:56.278Z,14.48
2022-09-12T11:47:25.343Z,18.33
2022-09-12T11:49:54.886Z,17.48
2022-09-12T11:52:26.070Z,11.25
2022-09-12T11:55:17.277Z,9.80
2022-09-12T11:58:02.758Z,10.68
2022-09-12T12:00:38.035Z,9.77
2022-09-12T12:03:10.689Z,10.18
2022-09-12T12:08:11.071Z,9.43
2022-09-12T12:10:42.334Z,10.63
2022-09-12T12:13:26.850Z,10.73
2022-09-12T12:15:57.805Z,10.38
2022-09-12T12:18:26.925Z,8.73
2022-09-12T12:20:55.913Z,11.15
2022-09-12T12:23:29.900Z,10.90
2022-09-12T12:26:00.050Z,9.90
2022-09-12T12:28:53.877Z,8.85
2022-09-12T12:31:21.119Z,12.20
2022-09-12T12:33:48.273Z,7.18
2022-09-12T12:36:44.829Z,6.38
2022-09-12T12:39:33.493Z,8.98
2022-09-12T12:42:03.200Z,7.90
2022-09-12T12:44:45.126Z,9.15
2022-09-12T12:47:22.131Z,7.45
2022-09-12T12:50:23.946Z,9.50
2022-09-12T12:52:55.617Z,12.82
2022-09-12T12:55:39.103Z,6.45
2022-09-12T12:58:18.449Z,9.00
2022-09-12T13:00:47.070Z,5.05
2022-09-12T13:03:41.925Z,5.53
2022-09-12T13:06:35.302Z,9.52
2022-09-12T13:09:06.661Z,5.03
2022-09-12T13:11:35.232Z,8.48
2022-09-12T13:14:07.047Z,9.95
2022-09-12T13:16:39.378Z,7.07
2022-09-12T13:19:21.992Z,9.02
2022-09-12T13:22:21.817Z,9.53
2022-09-12T13:24:52.276Z,6.30
2022-09-12T13:27:20.205Z,8.55
2022-09-12T13:29:47.414Z,7.85
2022-09-12T13:32:15.505Z,9.25
2022-09-12T13:35:14.063Z,5.18
2022-09-12T13:37:51.597Z,8.23
2022-09-12T13:40:39.420Z,9.68
2022-09-12T13:43:17.386Z,17.30
2022-09-12T13:45:47.050Z,6.18
2022-09-12T13:48:20.048Z,6.75
2022-09-12T13:51:00.674Z,7.57
2022-09-12T13:53:42.608Z,5.65
2022-09-12T13:56:17.433Z,6.47
2022-09-12T13:58:57.266Z,6.80
2022-09-12T14:01:36.865Z,8.82
2022-09-12T14:04:35.822Z,6.80
2022-09-12T14:07:13.997Z,9.40
2022-09-12T14:09:47.137Z,9.23
2022-09-12T14:14:56.273Z,6.03
2022-09-12T14:17:51.767Z,8.70
2022-09-12T14:20:20.784Z,5.82
2022-09-12T14:22:51.414Z,8.45
2022-09-12T14:25:21.557Z,4.85
2022-09-12T14:27:59.769Z,6.80
2022-09-12T14:30:32.570Z,5.28
2022-09-12T14:33:13.535Z,5.97
2022-09-12T14:35:52.231Z,7.10
2022-09-12T14:38:34.161Z,5.13
2022-09-12T14:41:06.070Z,7.95
2022-09-12T14:43:44.215Z,9.23
2022-09-12T14:46:34.131Z,7.05
2022-09-12T14:49:18.347Z,6.32
2022-09-12T14:51:51.510Z,4.60
2022-09-12T14:54:27.772Z,4.85
2022-09-12T14:56:57.340Z,8.07
2022-09-12T14:59:34.675Z,9.73
2022-09-12T15:02:20.175Z,10.63
2022-09-12T15:04:53.560Z,7.68
2022-09-12T15:07:41.196Z,11.93
2022-09-12T15:10:22.994Z,14.13
2022-09-12T15:12:49.978Z,12.25
2022-09-12T15:15:19.766Z,13.32
2022-09-12T15:17:46.960Z,9.90
2022-09-12T15:20:14.344Z,8.57
2022-09-12T15:22:42.477Z,8.82
2022-09-12T15:25:12.487Z,10.05
2022-09-12T15:27:41.054Z,13.95
2022-09-12T15:30:12.797Z,10.23
2022-09-12T15:32:41.045Z,8.15
2022-09-12T15:35:23.409Z,9.48
2022-09-12T15:37:54.203Z,8.93
2022-09-12T15:40:21.336Z,13.75
2022-09-12T15:42:59.272Z,7.13
2022-09-12T15:45:28.569Z,11.48
2022-09-12T15:47:56.348Z,10.68
2022-09-12T15:50:26.629Z,10.10
2022-09-12T15:52:53.942Z,11.95
2022-09-12T15:55:28.049Z,8.32
2022-09-12T15:57:55.705Z,12.07
2022-09-12T16:00:22.748Z,13.00
2022-09-12T16:02:51.848Z,14.55
2022-09-12T16:05:25.243Z,11.23
2022-09-12T16:07:55.888Z,9.48
2022-09-12T16:10:27.522Z,7.72
2022-09-12T16:12:55.483Z,11.18
2022-09-12T16:15:24.688Z,7.88
2022-09-12T16:17:52.573Z,12.05
2022-09-12T16:20:20.134Z,9.32
2022-09-12T16:22:47.215Z,4.78
2022-09-12T16:25:14.226Z,13.20
2022-09-12T16:27:41.361Z,6.35
2022-09-12T16:30:09.288Z,13.05
2022-09-12T16:32:36.458Z,5.65
2022-09-12T16:35:04.201Z,4.75
2022-09-12T16:37:32.420Z,4.53
2022-09-12T16:39:59.498Z,6.75
2022-09-12T16:42:26.596Z,7.32
2022-09-12T16:44:53.490Z,5.80
2022-09-12T16:47:20.398Z,8.15
2022-09-12T16:49:47.376Z,5.38
2022-09-12T16:52:16.694Z,6.43
2022-09-12T16:54:47.142Z,4.55
2022-09-12T16:57:14.128Z,4.13
2022-09-12T16:59:41.070Z,6.70
2022-09-12T17:02:12.281Z,6.30
2022-09-12T17:04:39.651Z,5.13
2022-09-12T17:07:06.640Z,6.35
2022-09-12T17:09:33.611Z,3.05
2022-09-12T17:12:00.864Z,4.50
2022-09-12T17:14:27.776Z,7.60
2022-09-12T17:16:54.723Z,5.88
2022-09-12T17:19:28.055Z,3.13
2022-09-12T17:21:55.900Z,4.32
2022-09-12T17:24:23.400Z,7.45
2022-09-12T17:26:54.337Z,7.13
2022-09-12T17:29:21.391Z,3.70
2022-09-12T17:31:48.856Z,8.07
2022-09-12T17:34:16.459Z,5.10
2022-09-12T17:36:44.988Z,3.97
2022-09-12T17:39:13.702Z,4.88
2022-09-12T17:41:42.733Z,6.47
2022-09-12T17:44:12.551Z,10.60
2022-09-12T17:46:39.999Z,3.78
2022-09-12T17:49:11.503Z,6.13
2022-09-12T17:51:39.590Z,7.03
2022-09-12T17:54:16.107Z,6.95
2022-09-12T17:56:45.527Z,5.22
2022-09-12T17:59:22.989Z,3.90
2022-09-12T18:02:08.639Z,8.60
2022-09-12T18:04:35.795Z,7.90
2022-09-12T18:07:02.742Z,5.43
2022-09-12T18:09:30.840Z,4.38
2022-09-12T18:11:57.839Z,8.23
2022-09-12T18:14:27.716Z,6.28
2022-09-12T18:16:57.246Z,5.88
2022-09-12T18:19:24.786Z,4.30
2022-09-12T18:21:51.708Z,10.38
2022-09-12T18:24:18.704Z,8.10
2022-09-12T18:26:46.188Z,7.88
2022-09-12T18:29:17.216Z,6.18
2022-09-12T18:31:46.094Z,7.32
2022-09-12T18:34:13.818Z,5.47
2022-09-12T18:36:42.666Z,8.75
2022-09-12T18:39:10.361Z,24.50
2022-09-12T18:41:38.229Z,6.63
2022-09-12T18:44:06.138Z,10.63
2022-09-12T18:46:35.170Z,5.72
2022-09-12T18:49:02.414Z,8.02
2022-09-12T18:51:33.018Z,6.53
2022-09-12T18:54:06.371Z,5.10
2022-09-12T18:56:35.962Z,25.40
2022-09-12T18:59:05.132Z,15.35
2022-09-12T19:01:37.753Z,4.72
2022-09-12T19:04:06.644Z,9.65
2022-09-12T19:06:36.437Z,3.90
2022-09-12T19:09:08.016Z,5.03
2022-09-12T19:11:37.499Z,6.15
2022-09-12T19:14:05.659Z,5.05
2022-09-12T19:16:32.947Z,9.82
2022-09-12T19:19:01.162Z,9.95
2022-09-12T19:21:30.369Z,4.13
2022-09-12T19:24:00.279Z,6.28
2022-09-12T19:26:27.946Z,6.90
2022-09-12T19:28:57.255Z,6.38
2022-09-12T19:31:25.932Z,8.05
2022-09-12T19:33:53.973Z,4.88
2022-09-12T19:36:44.495Z,5.10
2022-09-12T19:39:12.979Z,7.00
2022-09-12T19:41:39.958Z,10.52
2022-09-12T19:44:07.065Z,10.23
2022-09-12T19:46:34.123Z,5.80
2022-09-12T19:49:01.629Z,9.48
2022-09-12T19:51:29.095Z,6.40
2022-09-12T19:53:56.282Z,8.68
2022-09-12T19:56:23.588Z,7.20
2022-09-12T19:58:55.323Z,11.88
2022-09-12T20:01:28.071Z,25.88
2022-09-12T20:03:56.445Z,9.98
2022-09-12T20:06:23.430Z,6.88
2022-09-12T20:08:50.716Z,8.60
2022-09-12T20:11:20.061Z,6.63
2022-09-12T20:13:47.492Z,5.57
2022-09-12T20:16:20.586Z,10.02
2022-09-12T20:18:49.571Z,9.88
2022-09-12T20:21:19.420Z,9.68
2022-09-12T20:23:47.549Z,6.00
2022-09-12T20:26:15.115Z,13.48
2022-09-12T20:28:42.622Z,5.45
2022-09-12T20:31:15.312Z,6.82
2022-09-12T20:33:42.620Z,7.57
2022-09-12T20:36:15.994Z,7.88
2022-09-12T20:38:57.840Z,8.30
2022-09-12T20:41:26.634Z,9.20
2022-09-12T20:43:55.525Z,7.95
2022-09-12T20:46:27.424Z,14.15
2022-09-12T20:48:54.621Z,9.68
2022-09-12T20:51:22.452Z,7.55
2022-09-12T20:53:54.428Z,9.88
2022-09-12T20:56:22.523Z,12.40
2022-09-12T20:58:49.707Z,8.13
2022-09-12T21:01:17.428Z,9.63
2022-09-12T21:03:45.530Z,10.15
2022-09-12T21:06:14.470Z,9.57
2022-09-12T21:08:41.414Z,9.40
2022-09-12T21:11:11.813Z,13.50
2022-09-12T21:13:39.215Z,10.75
2022-09-12T21:16:09.943Z,13.95
2022-09-12T21:18:38.159Z,11.40
2022-09-12T21:21:06.128Z,13.30
2022-09-12T21:23:33.859Z,10.38
2022-09-12T21:26:01.682Z,10.48
2022-09-12T21:28:28.706Z,12.40
2022-09-12T21:30:56.509Z,11.43
2022-09-12T21:33:23.955Z,14.88
2022-09-12T21:35:51.705Z,13.40
2022-09-12T21:38:19.905Z,17.23
2022-09-12T21:40:47.824Z,12.25
2022-09-12T21:43:15.461Z,23.10
2022-09-12T21:45:45.394Z,16.85
2022-09-12T21:48:12.892Z,18.90
2022-09-12T21:50:39.752Z,14.63
2022-09-12T21:53:09.737Z,15.23
2022-09-12T21:55:36.700Z,24.25
2022-09-12T21:58:03.829Z,14.48
